Time;durP1;ratioP1;P1;durP2;ratioP2;P2;SDS_P1;SDS_P2;PMS_P1;PMS_P2;Temp;Humidity;BMP_temperature;BMP_pressure;BME280_temperature;BME280_humidity;BME280_pressure;Samples;Min_cycle;Max_cycle;Signal;HPM_P1;HPM_P2
2021/12/04 00:00:54;;;;;;;15.45;14.18;;;21.60;99.90;;;;;;5034304;28;20013;-78
2021/12/04 00:03:22;;;;;;;15.55;14.43;;;21.90;99.90;;;;;;5033947;28;20474;-77
2021/12/04 00:05:55;;;;;;;15.13;14.02;;;21.80;99.90;;;;;;5032766;28;20395;-78
2021/12/04 00:08:25;;;;;;;15.55;14.43;;;22.10;99.90;;;;;;5032545;28;20053;-78
2021/12/04 00:10:52;;;;;;;;;;;22.20;99.90;;;;;;5033104;28;20490;-78
2021/12/04 00:13:19;;;;;;;15.88;14.85;;;22.10;99.90;;;;;;5033954;28;19920;-79
2021/12/04 00:15:47;;;;;;;16.80;15.45;;;22.00;99.90;;;;;;5032694;28;20390;-76
2021/12/04 00:18:14;;;;;;;17.75;16.17;;;22.00;99.90;;;;;;5032265;28;20112;-76
2021/12/04 00:20:41;;;;;;;19.23;16.70;;;22.00;99.90;;;;;;5032649;28;20021;-77
2021/12/04 00:23:09;;;;;;;17.65;16.08;;;21.90;99.90;;;;;;5033457;28;20018;-77
2021/12/04 00:25:38;;;;;;;17.38;16.05;;;21.70;99.90;;;;;;5032250;28;20458;-76
2021/12/04 00:28:07;;;;;;;17.30;15.63;;;21.70;99.90;;;;;;5032921;28;20025;-75
2021/12/04 00:30:35;;;;;;;17.83;16.52;;;21.70;99.90;;;;;;5033461;28;20028;-76
2021/12/04 00:33:08;;;;;;;18.33;16.70;;;21.30;99.90;;;;;;5033481;28;20029;-80
2021/12/04 00:35:52;;;;;;;17.58;16.40;;;21.30;99.90;;;;;;5032885;28;20022;-79
2021/12/04 00:49:13;;;;;;;16.88;15.23;;;21.50;99.90;;;;;;5033847;28;20382;-77
2021/12/04 00:51:50;;;;;;;16.75;15.00;;;21.60;99.90;;;;;;5032534;28;20026;-78
2021/12/04 00:54:19;;;;;;;16.25;14.73;;;21.40;99.90;;;;;;5033319;28;20021;-77
2021/12/04 00:56:47;;;;;;;16.25;14.73;;;21.80;99.90;;;;;;5033710;28;20022;-78
2021/12/04 00:59:15;;;;;;;17.23;15.30;;;21.50;99.90;;;;;;5033793;28;20072;-78
2021/12/04 01:01:43;;;;;;;16.10;14.55;;;21.50;99.90;;;;;;5032818;28;20030;-79
2021/12/04 01:04:12;;;;;;;16.15;14.80;;;21.80;99.90;;;;;;5033635;28;20021;-77
2021/12/04 01:06:41;;;;;;;17.42;14.38;;;21.90;99.90;;;;;;5031935;28;20036;-76
2021/12/04 01:09:10;;;;;;;14.82;13.45;;;21.90;99.90;;;;;;5035575;28;20079;-80
2021/12/04 01:11:38;;;;;;;14.95;13.82;;;21.70;99.90;;;;;;5035547;28;20025;-77
2021/12/04 01:14:10;;;;;;;16.40;14.30;;;22.20;99.90;;;;;;5036928;28;20049;-78
2021/12/04 01:16:37;;;;;;;14.38;12.90;;;22.20;99.90;;;;;;5037635;28;20029;-78
2021/12/04 01:19:05;;;;;;;14.57;13.32;;;22.50;99.90;;;;;;5035557;28;20030;-78
2021/12/04 01:21:34;;;;;;;14.35;12.95;;;22.70;99.90;;;;;;5019268;28;20033;-79
2021/12/04 01:24:01;;;;;;;14.70;13.40;;;22.60;99.90;;;;;;5020232;28;20033;-77
2021/12/04 01:26:29;;;;;;;13.50;12.30;;;22.30;99.90;;;;;;5036976;28;20025;-78
2021/12/04 01:28:56;;;;;;;14.15;12.82;;;22.10;99.90;;;;;;5037186;28;20508;-77
2021/12/04 01:31:24;;;;;;;13.35;12.10;;;22.00;99.90;;;;;;5037055;28;20018;-78
2021/12/04 01:33:52;;;;;;;12.80;11.68;;;21.90;99.90;;;;;;5019995;28;20026;-75
2021/12/04 01:36:19;;;;;;;13.40;12.13;;;21.90;99.90;;;;;;5037461;28;20022;-79
2021/12/04 01:38:47;;;;;;;14.82;13.25;;;21.60;99.90;;;;;;5037429;28;20083;-80
2021/12/04 01:41:14;;;;;;;13.98;12.70;;;21.50;99.90;;;;;;5036397;28;20379;-77
2021/12/04 01:43:42;;;;;;;14.15;12.60;;;21.70;99.90;;;;;;5035736;28;20140;-77
2021/12/04 01:46:09;;;;;;;14.07;12.73;;;21.60;99.90;;;;;;5037138;28;20074;-78
2021/12/04 01:48:37;;;;;;;14.90;13.00;;;21.70;99.90;;;;;;5037032;28;20021;-78
2021/12/04 01:51:05;;;;;;;13.20;12.25;;;21.50;99.90;;;;;;5035754;28;20032;-78
2021/12/04 01:53:32;;;;;;;16.55;11.70;;;21.60;99.90;;;;;;5035280;28;20026;-77
2021/12/04 01:56:01;;;;;;;12.90;11.43;;;21.60;99.90;;;;;;5035582;28;20021;-78
2021/12/04 01:58:30;;;;;;;15.05;11.13;;;21.80;99.90;;;;;;5035287;28;20029;-78
2021/12/04 02:00:58;;;;;;;12.98;11.55;;;21.90;99.90;;;;;;5035207;28;20018;-78
2021/12/04 02:03:26;;;;;;;12.27;10.98;;;22.00;99.90;;;;;;5035442;28;20373;-77
2021/12/04 02:05:53;;;;;;;15.23;11.75;;;21.80;99.90;;;;;;5036579;28;20025;-77
2021/12/04 02:08:23;;;;;;;14.57;11.10;;;22.10;99.90;;;;;;5036774;28;20017;-80
2021/12/04 02:10:53;;;;;;;11.40;10.23;;;22.40;99.90;;;;;;5036913;28;20048;-77
2021/12/04 02:13:20;;;;;;;10.40;9.30;;;22.40;99.90;;;;;;5036903;28;20263;-78
2021/12/04 02:15:48;;;;;;;9.57;8.40;;;22.50;99.90;;;;;;5037046;28;20026;-77
2021/12/04 02:18:18;;;;;;;8.88;7.82;;;22.70;99.90;;;;;;5035528;28;20116;-82
2021/12/04 02:20:45;;;;;;;8.95;7.85;;;23.00;99.90;;;;;;5035790;28;20033;-78
2021/12/04 02:23:13;;;;;;;7.55;6.55;;;23.20;99.90;;;;;;5035616;28;20128;-81
2021/12/04 02:25:42;;;;;;;8.32;5.95;;;22.90;99.90;;;;;;5036026;28;20025;-78
2021/12/04 02:28:11;;;;;;;8.23;5.45;;;23.00;99.90;;;;;;5034584;28;20029;-84
2021/12/04 02:30:41;;;;;;;6.53;5.03;;;23.20;99.90;;;;;;5036434;28;20526;-81
2021/12/04 02:33:12;;;;;;;5.30;4.80;;;23.40;99.90;;;;;;5036954;28;20021;-79
2021/12/04 02:35:48;;;;;;;8.55;4.47;;;23.40;99.90;;;;;;5036695;28;20024;-80
2021/12/04 02:38:18;;;;;;;6.90;4.00;;;23.80;99.90;;;;;;5035134;28;20485;-78
2021/12/04 02:40:46;;;;;;;7.35;3.60;;;23.70;99.90;;;;;;5034757;28;20028;-79
2021/12/04 02:43:14;;;;;;;8.52;3.85;;;23.70;99.90;;;;;;5034883;28;20053;-79
2021/12/04 02:45:43;;;;;;;8.75;3.83;;;23.80;99.90;;;;;;5036320;28;20029;-78
2021/12/04 02:48:12;;;;;;;7.63;4.32;;;23.60;99.90;;;;;;5035586;28;20040;-78
2021/12/04 02:50:40;;;;;;;4.47;3.25;;;23.40;99.90;;;;;;5035691;28;20029;-80
2021/12/04 02:53:08;;;;;;;4.95;3.30;;;23.70;99.90;;;;;;5034486;28;20136;-76
2021/12/04 02:55:36;;;;;;;8.25;3.60;;;23.70;99.90;;;;;;5034453;28;20044;-80
2021/12/04 02:58:04;;;;;;;6.25;3.67;;;23.90;99.90;;;;;;5034325;28;20475;-78
2021/12/04 03:00:32;;;;;;;5.80;3.05;;;24.10;99.90;;;;;;5039236;28;20088;-81
2021/12/04 03:02:59;;;;;;;6.13;3.45;;;24.20;99.90;;;;;;5036236;28;20033;-77
2021/12/04 03:05:28;;;;;;;6.13;3.30;;;23.90;99.90;;;;;;5033858;28;20429;-75
2021/12/04 03:07:57;;;;;;;6.15;4.22;;;23.70;99.90;;;;;;5035007;28;20108;-76
2021/12/04 03:10:26;;;;;;;5.53;4.15;;;23.40;99.90;;;;;;5033916;28;20026;-78
2021/12/04 03:12:53;;;;;;;4.35;3.53;;;23.30;99.90;;;;;;5034090;28;20479;-79
2021/12/04 03:15:21;;;;;;;6.75;3.33;;;23.20;99.90;;;;;;5034091;28;20052;-77
2021/12/04 03:17:49;;;;;;;6.13;3.80;;;23.10;99.90;;;;;;5033514;28;20076;-79
2021/12/04 03:20:18;;;;;;;6.60;3.40;;;23.10;99.90;;;;;;5033118;28;20032;-77
2021/12/04 03:22:47;;;;;;;8.30;3.90;;;23.10;99.90;;;;;;5033471;28;20025;-79
2021/12/04 03:25:19;;;;;;;5.25;2.95;;;22.70;99.90;;;;;;5034553;28;20022;-78
2021/12/04 03:27:49;;;;;;;7.75;3.33;;;22.60;99.90;;;;;;5034786;28;20017;-76
2021/12/04 03:30:33;;;;;;;6.30;3.90;;;22.60;99.90;;;;;;5033403;28;20021;-77
2021/12/04 03:41:17;;;;;;;5.05;3.50;;;22.70;99.90;;;;;;5034288;28;20113;-76
2021/12/04 03:43:44;;;;;;;6.28;3.83;;;22.50;99.90;;;;;;5034091;28;20112;-75
2021/12/04 03:46:15;;;;;;;8.63;4.18;;;22.40;99.90;;;;;;5032459;28;20035;-74
2021/12/04 03:51:09;;;;;;;7.13;4.15;;;22.40;99.90;;;;;;5033725;28;19914;-76
2021/12/04 03:53:37;;;;;;;5.97;3.72;;;22.50;99.90;;;;;;5033822;28;20017;-80
2021/12/04 03:56:05;;;;;;;8.68;4.68;;;22.40;99.90;;;;;;5035804;28;20014;-78
2021/12/04 03:58:33;;;;;;;9.02;3.92;;;22.60;99.90;;;;;;5033524;28;20023;-75
2021/12/04 04:01:00;;;;;;;7.57;3.92;;;22.50;99.90;;;;;;5032571;28;20072;-75
2021/12/04 04:03:28;;;;;;;5.75;3.45;;;22.50;99.90;;;;;;5032031;28;20033;-75
2021/12/04 04:05:55;;;;;;;6.47;3.90;;;22.40;99.90;;;;;;5032377;28;20025;-75
2021/12/04 04:08:23;;;;;;;6.85;4.30;;;22.70;99.90;;;;;;5033431;28;20037;-75
2021/12/04 04:10:53;;;;;;;6.32;3.58;;;22.70;99.90;;;;;;5031974;28;20478;-75
2021/12/04 04:13:21;;;;;;;4.95;3.90;;;22.90;99.90;;;;;;5033439;28;20021;-75
2021/12/04 04:15:48;;;;;;;9.82;4.43;;;22.80;99.90;;;;;;5033877;28;20109;-76
2021/12/04 04:18:16;;;;;;;7.78;4.07;;;23.10;99.90;;;;;;5031802;28;20029;-76
2021/12/04 04:20:44;;;;;;;8.63;4.70;;;23.20;99.90;;;;;;5032116;28;20033;-76
2021/12/04 04:23:11;;;;;;;6.55;3.53;;;22.90;99.90;;;;;;5033109;28;20022;-75
2021/12/04 04:25:41;;;;;;;6.80;3.90;;;22.90;99.90;;;;;;5031987;28;20053;-76
2021/12/04 04:28:09;;;;;;;7.60;3.40;;;22.90;99.90;;;;;;5031872;28;20524;-76
2021/12/04 04:30:37;;;;;;;7.80;3.90;;;23.10;99.90;;;;;;5033180;28;20079;-75
2021/12/04 04:33:05;;;;;;;11.45;4.45;;;23.10;99.90;;;;;;5033123;28;20109;-76
2021/12/04 04:35:34;;;;;;;8.93;3.95;;;23.40;99.90;;;;;;5032182;28;20079;-75
2021/12/04 05:00:06;;;;;;;11.80;5.50;;;22.50;99.90;;;;;;5036966;28;20079;-76
2021/12/04 05:10:15;;;;;;;11.55;4.88;;;22.40;99.90;;;;;;5035644;28;20097;-76
2021/12/04 05:13:37;;;;;;;11.70;6.00;;;22.00;99.90;;;;;;5037173;28;20442;-77
2021/12/04 05:16:14;;;;;;;12.00;5.80;;;21.90;99.90;;;;;;5037109;28;20036;-76
2021/12/04 05:18:53;;;;;;;13.50;5.68;;;21.80;99.90;;;;;;5035459;28;20036;-76
2021/12/04 05:21:21;;;;;;;13.23;6.75;;;21.70;99.90;;;;;;5035904;28;20017;-76
2021/12/04 05:23:51;;;;;;;14.10;6.80;;;21.60;99.90;;;;;;5036443;28;20444;-76
2021/12/04 05:26:25;;;;;;;12.77;7.30;;;21.40;99.90;;;;;;5037315;28;20101;-77
2021/12/04 05:28:54;;;;;;;11.38;7.00;;;21.50;99.90;;;;;;5037226;28;20021;-76
2021/12/04 05:31:22;;;;;;;12.13;7.05;;;21.50;99.90;;;;;;5036891;28;20179;-77
2021/12/04 05:33:50;;;;;;;17.67;8.10;;;21.60;99.90;;;;;;5037012;28;20028;-76
2021/12/04 05:36:18;;;;;;;11.63;6.60;;;21.70;99.90;;;;;;5036983;28;20100;-77
2021/12/04 05:38:45;;;;;;;12.18;7.60;;;21.50;99.90;;;;;;5036697;28;20554;-75
2021/12/04 05:41:14;;;;;;;14.38;7.50;;;21.50;99.90;;;;;;5036955;28;20017;-76
2021/12/04 05:43:41;;;;;;;19.08;7.88;;;21.50;99.90;;;;;;5034868;28;20048;-75
2021/12/04 05:46:17;;;;;;;11.32;6.97;;;21.50;99.90;;;;;;5036438;28;20052;-75
2021/12/04 05:48:57;;;;;;;8.88;7.43;;;21.70;99.90;;;;;;5035011;28;20473;-75
2021/12/04 05:56:55;;;;;;;15.98;8.48;;;21.40;99.90;;;;;;5037046;28;20059;-76
2021/12/04 05:59:22;;;;;;;15.60;8.65;;;21.50;99.90;;;;;;5036878;28;20489;-76
2021/12/04 06:01:50;;;;;;;12.93;8.40;;;21.50;99.90;;;;;;5036716;28;20474;-74
2021/12/04 06:04:17;;;;;;;14.70;9.20;;;21.50;99.90;;;;;;5035416;28;20036;-74
2021/12/04 06:06:45;;;;;;;11.73;8.52;;;21.50;99.90;;;;;;5036237;28;20057;-74
2021/12/04 06:09:12;;;;;;;12.82;8.52;;;21.40;99.90;;;;;;5035051;28;20493;-74
2021/12/04 06:11:40;;;;;;;15.05;8.98;;;21.40;99.90;;;;;;5036179;28;20434;-74
2021/12/04 06:14:08;;;;;;;14.48;9.25;;;21.40;99.90;;;;;;5035180;28;20474;-74
2021/12/04 06:16:35;;;;;;;14.88;10.32;;;21.40;99.90;;;;;;5036372;28;20025;-74
2021/12/04 06:19:12;;;;;;;19.73;9.75;;;21.20;99.90;;;;;;5036413;28;20032;-74
2021/12/04 06:24:26;;;;;;;14.63;9.50;;;21.30;99.90;;;;;;5035721;28;20406;-75
2021/12/04 06:26:53;;;;;;;16.50;9.73;;;21.30;99.90;;;;;;5034860;28;20079;-74
2021/12/04 06:29:21;;;;;;;14.00;8.70;;;21.20;99.90;;;;;;5034922;28;20033;-75
2021/12/04 06:31:49;;;;;;;14.30;10.30;;;21.10;99.90;;;;;;5034712;28;20022;-74
2021/12/04 06:34:16;;;;;;;15.27;10.02;;;21.10;99.90;;;;;;5035819;28;20029;-74
2021/12/04 06:36:44;;;;;;;13.02;9.50;;;21.00;99.90;;;;;;5035802;28;20085;-74
2021/12/04 06:39:11;;;;;;;14.55;10.00;;;20.90;99.90;;;;;;5034545;28;20431;-74
2021/12/04 06:41:41;;;;;;;14.90;10.88;;;20.70;99.90;;;;;;5034214;28;20021;-75
2021/12/04 06:44:08;;;;;;;17.20;11.48;;;20.60;99.90;;;;;;5034228;28;20112;-75
2021/12/04 06:46:35;;;;;;;13.25;11.35;;;20.40;99.90;;;;;;5034935;28;20108;-73
2021/12/04 06:49:08;;;;;;;13.93;11.57;;;20.40;99.90;;;;;;5035063;28;20394;-74
2021/12/04 06:51:38;;;;;;;14.07;12.05;;;20.30;99.90;;;;;;5035135;28;20390;-74
2021/12/04 06:54:11;;;;;;;16.83;11.98;;;20.40;99.90;;;;;;5035000;28;20024;-74
2021/12/04 06:56:41;;;;;;;13.60;12.05;;;20.30;99.90;;;;;;5035266;28;20467;-74
2021/12/04 06:59:13;;;;;;;18.48;12.70;;;20.40;99.90;;;;;;5035595;28;20017;-75
2021/12/04 07:01:41;;;;;;;16.38;11.63;;;20.40;99.90;;;;;;5017967;28;20053;-74
2021/12/04 07:04:10;;;;;;;15.65;12.15;;;20.40;99.90;;;;;;5034788;28;20029;-75
2021/12/04 07:06:38;;;;;;;17.85;13.00;;;20.30;99.90;;;;;;5032950;28;20116;-75
2021/12/04 07:09:06;;;;;;;15.25;13.15;;;20.20;99.90;;;;;;5033437;28;20040;-74
2021/12/04 07:11:33;;;;;;;14.95;13.55;;;20.30;99.90;;;;;;5033642;28;20528;-75
2021/12/04 07:14:01;;;;;;;16.55;14.90;;;20.20;99.90;;;;;;5033321;28;20032;-75
2021/12/04 07:16:28;;;;;;;18.70;16.75;;;20.20;99.90;;;;;;5034019;28;20164;-75
2021/12/04 07:18:56;;;;;;;20.33;18.13;;;20.20;99.90;;;;;;5033400;28;20502;-74
2021/12/04 07:21:24;;;;;;;19.95;17.90;;;20.10;99.90;;;;;;5033557;28;20030;-74
2021/12/04 07:23:52;;;;;;;19.33;17.67;;;20.00;99.90;;;;;;5033037;28;20124;-76
2021/12/04 07:26:20;;;;;;;19.80;17.90;;;19.90;99.90;;;;;;5034463;28;20053;-76
2021/12/04 07:28:47;;;;;;;20.83;18.80;;;19.80;99.90;;;;;;5034741;28;20032;-76
2021/12/04 07:31:14;;;;;;;18.55;16.85;;;19.80;99.90;;;;;;5034462;28;20025;-76
2021/12/04 07:33:42;;;;;;;17.65;16.17;;;19.80;99.90;;;;;;5034402;28;20033;-76
2021/12/04 07:36:10;;;;;;;18.10;16.58;;;19.80;99.90;;;;;;5033206;28;20104;-76
2021/12/04 07:38:37;;;;;;;17.67;15.98;;;19.70;99.90;;;;;;5032795;28;20021;-73
2021/12/04 07:41:05;;;;;;;19.02;16.92;;;19.80;99.90;;;;;;5033970;28;20497;-75
2021/12/04 07:43:32;;;;;;;18.17;16.55;;;19.80;99.90;;;;;;5032713;28;20049;-75
2021/12/04 07:46:01;;;;;;;18.33;16.48;;;19.80;99.90;;;;;;5034239;28;20079;-76
2021/12/04 07:48:28;;;;;;;17.48;15.60;;;19.90;99.90;;;;;;5034220;28;20112;-75
2021/12/04 07:50:56;;;;;;;17.35;15.52;;;19.80;99.90;;;;;;5034190;28;20026;-75
2021/12/04 07:53:24;;;;;;;20.67;16.45;;;19.80;99.90;;;;;;5032911;28;20049;-74
2021/12/04 07:55:52;;;;;;;18.13;16.52;;;19.80;99.90;;;;;;5034054;28;20097;-75
2021/12/04 07:58:19;;;;;;;18.52;16.83;;;19.80;99.90;;;;;;5034307;28;20104;-76
2021/12/04 08:00:47;;;;;;;19.95;17.85;;;19.80;99.90;;;;;;5033241;28;20116;-77
2021/12/04 08:03:15;;;;;;;19.50;17.58;;;19.70;99.90;;;;;;5033311;28;20116;-77
2021/12/04 08:05:43;;;;;;;21.13;18.45;;;19.70;99.90;;;;;;5034415;28;20025;-77
2021/12/04 08:08:12;;;;;;;21.77;19.55;;;19.70;99.90;;;;;;5034594;28;20022;-78
2021/12/04 08:10:40;;;;;;;20.92;19.08;;;19.60;99.90;;;;;;5034657;28;20148;-77
2021/12/04 08:13:10;;;;;;;21.35;19.38;;;19.60;99.90;;;;;;5033482;28;20034;-78
2021/12/04 08:15:38;;;;;;;22.30;20.02;;;19.60;99.90;;;;;;5034840;28;20021;-78
2021/12/04 08:18:07;;;;;;;22.20;20.08;;;19.60;99.90;;;;;;5016654;28;20128;-77
2021/12/04 08:20:38;;;;;;;21.52;19.35;;;19.60;99.90;;;;;;5034664;28;20038;-79
2021/12/04 08:23:07;;;;;;;21.58;19.38;;;19.70;99.90;;;;;;5035035;28;20420;-77
2021/12/04 08:25:34;;;;;;;20.35;18.50;;;19.60;99.90;;;;;;5033420;28;20026;-78
2021/12/04 08:28:02;;;;;;;22.02;18.45;;;19.70;99.90;;;;;;5034582;28;20030;-77
2021/12/04 08:30:34;;;;;;;20.83;18.60;;;19.70;99.90;;;;;;5033653;28;20426;-77
2021/12/04 08:33:01;;;;;;;20.88;18.88;;;19.70;99.90;;;;;;5032844;28;20486;-78
2021/12/04 08:35:35;;;;;;;23.48;19.25;;;19.60;99.90;;;;;;5033146;28;20022;-78
2021/12/04 08:38:03;;;;;;;21.45;19.23;;;19.60;99.90;;;;;;5035244;28;20032;-78
2021/12/04 08:40:31;;;;;;;23.50;20.25;;;19.60;99.90;;;;;;5035327;28;20387;-79
2021/12/04 08:42:59;;;;;;;23.35;21.00;;;19.50;99.90;;;;;;5017137;28;20041;-78
2021/12/04 08:45:28;;;;;;;23.17;20.75;;;19.50;99.90;;;;;;5033370;28;20529;-77
2021/12/04 08:47:55;;;;;;;22.98;20.80;;;19.50;99.90;;;;;;5033270;28;20026;-78
2021/12/04 08:50:26;;;;;;;23.00;20.80;;;19.40;99.90;;;;;;5034551;28;20048;-75
2021/12/04 08:52:54;;;;;;;;;;;19.50;99.90;;;;;;5035406;28;20057;-76
2021/12/04 08:55:23;;;;;;;23.65;21.45;;;19.50;99.90;;;;;;5034858;28;19909;-79
2021/12/04 08:57:51;;;;;;;23.92;21.58;;;19.50;99.90;;;;;;5033625;28;20026;-78
2021/12/04 09:00:33;;;;;;;22.30;20.00;;;19.50;99.90;;;;;;5032725;28;20430;-77
2021/12/04 09:03:03;;;;;;;22.75;20.63;;;19.40;99.90;;;;;;5034023;28;20540;-77
2021/12/04 09:05:31;;;;;;;23.35;20.98;;;19.30;99.90;;;;;;5032775;28;20120;-77
2021/12/04 09:07:59;;;;;;;23.52;21.30;;;19.40;99.90;;;;;;5033304;28;20030;-77
2021/12/04 09:10:27;;;;;;;28.42;21.88;;;19.40;99.90;;;;;;5032810;28;20513;-75
2021/12/04 09:12:55;;;;;;;22.42;20.52;;;19.40;99.90;;;;;;5034017;28;20018;-74
2021/12/04 09:15:31;;;;;;;23.17;20.77;;;19.40;99.90;;;;;;5032589;28;20502;-77
2021/12/04 09:17:59;;;;;;;23.23;20.92;;;19.40;99.90;;;;;;5032622;28;20028;-77
2021/12/04 09:20:29;;;;;;;23.70;21.20;;;19.40;99.90;;;;;;5033844;28;20030;-77
2021/12/04 09:22:57;;;;;;;23.40;21.27;;;19.30;99.90;;;;;;5033968;28;20031;-76
2021/12/04 09:25:26;;;;;;;23.00;20.77;;;19.30;99.90;;;;;;5034241;28;20478;-78
2021/12/04 09:36:41;;;;;;;21.80;19.75;;;19.20;99.90;;;;;;5037883;28;20033;-78
2021/12/04 10:18:11;;;;;;;22.70;19.67;;;19.10;99.90;;;;;;5036561;28;20025;-75
2021/12/04 10:23:32;;;;;;;21.30;19.08;;;19.20;99.90;;;;;;5036323;28;20029;-75
2021/12/04 10:34:31;;;;;;;20.65;18.25;;;19.10;99.90;;;;;;5036529;28;20076;-76
2021/12/04 10:37:26;;;;;;;24.42;17.15;;;19.10;99.90;;;;;;5036273;28;20071;-75
2021/12/04 10:39:58;;;;;;;21.75;17.05;;;19.00;99.90;;;;;;5033050;28;20037;-75
2021/12/04 10:42:39;;;;;;;18.80;16.38;;;18.90;99.90;;;;;;5034227;28;20080;-75
2021/12/04 10:45:09;;;;;;;18.52;16.52;;;18.90;99.90;;;;;;5035603;28;20037;-76
2021/12/04 10:47:39;;;;;;;17.83;16.20;;;18.90;99.90;;;;;;5034157;28;20160;-77
2021/12/04 10:50:32;;;;;;;18.15;16.17;;;18.90;99.90;;;;;;5035632;28;20056;-78
2021/12/04 10:53:04;;;;;;;18.60;16.85;;;18.70;99.90;;;;;;5034524;28;20569;-77
2021/12/04 10:55:52;;;;;;;18.20;16.40;;;18.60;99.90;;;;;;5034462;28;20076;-77
2021/12/04 11:01:42;;;;;;;19.38;17.15;;;18.60;99.90;;;;;;5035559;28;20383;-75
2021/12/04 11:04:26;;;;;;;19.38;17.65;;;18.50;99.90;;;;;;5034328;28;20031;-76
2021/12/04 11:21:16;;;;;;;23.55;21.27;;;18.10;99.90;;;;;;5035020;28;20079;-73
2021/12/04 11:43:10;;;;;;;35.30;32.40;;;17.40;99.90;;;;;;5034100;28;20045;-73
2021/12/04 11:46:03;;;;;;;36.13;32.92;;;17.30;99.90;;;;;;5034413;28;20040;-73
2021/12/04 11:48:39;;;;;;;38.05;34.92;;;17.30;99.90;;;;;;5034585;28;20055;-74
2021/12/04 11:51:15;;;;;;;40.10;35.95;;;17.20;99.90;;;;;;5034320;28;20033;-73
2021/12/04 11:53:44;;;;;;;38.13;34.85;;;17.30;99.90;;;;;;5034324;28;20104;-74
2021/12/04 11:56:29;;;;;;;38.92;35.55;;;17.30;99.90;;;;;;5032791;28;20026;-73
2021/12/04 11:58:57;;;;;;;36.63;33.90;;;17.30;99.90;;;;;;5032826;28;20029;-73
2021/12/04 12:01:30;;;;;;;37.17;33.90;;;17.30;99.90;;;;;;5032712;28;20029;-74
2021/12/04 12:04:04;;;;;;;36.75;33.45;;;17.30;99.90;;;;;;5034078;28;20023;-74
2021/12/04 12:06:37;;;;;;;37.60;34.20;;;17.30;99.90;;;;;;5034088;28;20074;-73
2021/12/04 12:09:09;;;;;;;37.20;34.40;;;17.30;99.90;;;;;;5034120;28;20479;-73
2021/12/04 12:11:37;;;;;;;37.22;34.70;;;17.30;99.90;;;;;;5033920;28;20025;-72
2021/12/04 12:14:11;;;;;;;35.55;32.60;;;;;;;;;;5032507;28;20025;-73
2021/12/04 12:16:54;;;;;;;38.28;34.97;;;;;;;;;;5016400;28;20033;-73
2021/12/04 12:19:36;;;;;;;35.30;32.80;;;;;;;;;;5032677;28;20506;-74
2021/12/04 12:22:10;;;;;;;37.85;34.72;;;;;;;;;;5032442;28;20029;-75
2021/12/04 12:32:48;;;;;;;39.50;36.78;;;;;;;;;;5033979;28;20032;-73
2021/12/04 12:38:09;;;;;;;38.65;35.55;;;;;;;;;;5034091;28;20552;-73
2021/12/04 12:40:36;;;;;;;37.22;34.28;;;;;;;;;;5032188;28;20483;-73
2021/12/04 12:43:11;;;;;;;35.40;32.55;;;;;;;;;;5033888;28;20042;-73
2021/12/04 12:45:38;;;;;;;35.20;32.40;;;;;;;;;;5033429;28;20506;-73
2021/12/04 12:48:11;;;;;;;35.67;32.58;;;;;;;;;;5033884;28;20030;-73
2021/12/04 12:50:41;;;;;;;34.97;32.30;;;;;;;;;;5033651;28;20086;-73
2021/12/04 12:53:10;;;;;;;34.25;31.35;;;;;;;;;;5032042;28;20402;-73
2021/12/04 12:55:38;;;;;;;33.42;30.58;;;;;;;;;;5033192;28;20045;-74
2021/12/04 12:58:20;;;;;;;32.40;29.92;;;;;;;;;;5033546;28;20111;-74
2021/12/04 13:12:08;;;;;;;29.83;27.67;;;;;;;;;;5037160;28;20136;-73
2021/12/04 13:14:39;;;;;;;30.42;28.00;;;;;;;;;;5036824;28;20406;-73
2021/12/04 13:17:09;;;;;;;29.27;27.30;;;;;;;;;;5037030;28;20386;-74
2021/12/04 13:19:38;;;;;;;28.83;26.70;;;;;;;;;;5036878;28;20026;-74
2021/12/04 13:22:08;;;;;;;26.88;24.95;;;;;;;;;;5035623;28;20492;-74
2021/12/04 13:24:36;;;;;;;27.02;25.35;;;;;;;;;;5035443;28;20053;-73
2021/12/04 13:29:45;;;;;;;26.05;23.88;;;;;;;;;;5036797;28;20032;-73
2021/12/04 13:32:14;;;;;;;25.67;24.10;;;;;;;;;;5036925;28;20390;-73
2021/12/04 13:34:42;;;;;;;27.15;24.85;;;;;;;;;;5036527;28;20048;-73
2021/12/04 13:37:10;;;;;;;25.88;24.08;;;;;;;;;;5036561;28;20022;-74
2021/12/04 13:39:40;;;;;;;27.13;25.13;;;;;;;;;;5035059;28;20030;-73
2021/12/04 13:42:07;;;;;;;24.63;23.33;;;;;;;;;;5036503;28;20037;-73
2021/12/04 13:44:38;;;;;;;27.10;24.67;;;;;;;;;;5036240;28;20163;-74
2021/12/04 13:47:07;;;;;;;24.02;22.08;;;;;;;;;;5034933;28;20053;-73
2021/12/04 13:49:38;;;;;;;23.52;21.67;;;;;;;;;;5034927;28;20021;-73
2021/12/04 13:52:10;;;;;;;22.80;21.00;;;;;;;;;;5036735;28;20096;-73
2021/12/04 13:54:46;;;;;;;24.13;22.20;;;;;;;;;;5036652;28;20498;-73
2021/12/04 13:57:14;;;;;;;19.63;17.98;;;;;;;;;;5036250;28;20394;-74
2021/12/04 13:59:42;;;;;;;20.15;18.42;;;;;;;;;;5034916;28;20175;-74
2021/12/04 14:02:19;;;;;;;19.98;18.45;;;;;;;;;;5035048;28;20509;-73
2021/12/04 14:04:55;;;;;;;17.05;15.55;;;;;;;;;;5034869;28;20068;-73
2021/12/04 14:07:22;;;;;;;17.30;15.82;;;;;;;;;;5036143;28;20074;-73
2021/12/04 14:09:49;;;;;;;16.85;15.43;;;;;;;;;;5034634;28;20105;-73
2021/12/04 14:12:16;;;;;;;15.73;14.32;;;;;;;;;;5036011;28;20033;-73
2021/12/04 14:14:44;;;;;;;16.27;14.60;;;;;;;;;;5035929;28;20025;-74
2021/12/04 14:17:13;;;;;;;15.93;14.27;;;;;;;;;;5034872;28;20036;-72
2021/12/04 14:19:41;;;;;;;17.05;15.45;;;;;;;;;;5035590;28;20025;-72
2021/12/04 14:22:13;;;;;;;15.70;14.38;;;;;;;;;;5035441;28;20101;-73
2021/12/04 14:24:47;;;;;;;17.13;15.38;;;;;;;;;;5035957;28;20029;-73
2021/12/04 14:27:20;;;;;;;15.60;14.00;;;;;;;;;;5035923;28;20049;-73
2021/12/04 14:29:58;;;;;;;15.25;13.70;;;;;;;;;;5035839;28;20449;-73
2021/12/04 14:32:26;;;;;;;17.05;14.10;;;;;;;;;;5034448;28;20021;-73
2021/12/04 14:35:00;;;;;;;15.20;13.85;;;;;;;;;;5035708;28;20025;-73
2021/12/04 14:37:28;;;;;;;16.50;14.10;;;;;;;;;;5034466;28;20029;-73
2021/12/04 14:39:55;;;;;;;16.85;14.50;;;;;;;;;;5034432;28;20025;-73
2021/12/04 14:42:29;;;;;;;16.20;14.43;;;;;;;;;;5035392;28;20053;-73
2021/12/04 14:45:04;;;;;;;16.75;15.00;;;;;;;;;;5035673;28;20049;-73
2021/12/04 14:47:35;;;;;;;16.40;14.77;;;;;;;;;;5034099;28;20053;-74
2021/12/04 14:50:04;;;;;;;15.43;13.80;;;;;;;;;;5035490;28;20024;-75
2021/12/04 14:52:32;;;;;;;15.55;14.20;;;;;;;;;;5033954;28;20051;-74
2021/12/04 14:55:00;;;;;;;16.13;14.52;;;;;;;;;;5034109;28;20024;-73
2021/12/04 14:57:29;;;;;;;15.93;14.45;;;;;;;;;;5035380;28;20340;-73
2021/12/04 15:00:07;;;;;;;16.17;14.60;;;;;;;;;;5033894;28;20021;-73
2021/12/04 15:02:34;;;;;;;14.98;13.60;;;;;;;;;;5035091;28;20025;-74
2021/12/04 15:05:03;;;;;;;15.38;12.80;;;;;;;;;;5033655;28;20406;-74
2021/12/04 15:07:34;;;;;;;14.35;13.00;;;;;;;;;;5033624;28;20564;-74
2021/12/04 15:10:06;;;;;;;14.75;13.20;;;;;;;;;;5035079;28;20033;-73
2021/12/04 15:12:34;;;;;;;14.07;12.63;;;;;;;;;;5033289;28;20168;-73
2021/12/04 15:15:09;;;;;;;15.15;13.65;;;;;;;;;;5034786;28;20049;-74
2021/12/04 15:17:40;;;;;;;14.77;13.40;;;;;;;;;;5034762;28;20401;-74
2021/12/04 15:20:15;;;;;;;15.88;14.65;;;;;;;;;;5034836;28;20032;-74
2021/12/04 15:22:46;;;;;;;16.08;14.52;;;;;;;;;;5033287;28;20051;-74
2021/12/04 15:25:24;;;;;;;17.30;15.45;;;;;;;;;;5034778;28;20030;-73
2021/12/04 15:27:52;;;;;;;18.23;15.02;;;;;;;;;;5034236;28;20029;-73
2021/12/04 15:30:20;;;;;;;16.80;15.18;;;;;;;;;;5034729;28;20022;-73
2021/12/04 15:32:47;;;;;;;17.55;15.95;;;;;;;;;;5033220;28;20017;-75
2021/12/04 15:35:21;;;;;;;18.05;16.67;;;;;;;;;;5033278;28;20036;-72
2021/12/04 15:37:54;;;;;;;17.05;15.63;;;;;;;;;;5034393;28;20021;-74
2021/12/04 15:40:33;;;;;;;17.02;15.52;;;;;;;;;;5034409;28;20040;-73
2021/12/04 15:43:15;;;;;;;17.35;16.00;;;;;;;;;;5034007;28;20041;-73
2021/12/04 15:46:05;;;;;;;17.40;15.82;;;;;;;;;;5034427;28;20021;-74
2021/12/04 15:48:56;;;;;;;16.95;15.18;;;;;;;;;;5034212;28;20033;-73
2021/12/04 15:53:58;;;;;;;15.43;13.93;;;;;;;;;;5034247;28;20453;-74
2021/12/04 15:56:29;;;;;;;14.93;13.73;;;;;;;;;;5034136;28;20479;-73
2021/12/04 15:58:56;;;;;;;14.80;13.27;;;;;;;;;;5034105;28;20478;-74
2021/12/04 16:01:27;;;;;;;14.20;13.00;;;;;;;;;;5032861;28;20021;-73
2021/12/04 16:03:55;;;;;;;14.93;13.50;;;;;;;;;;5033996;28;20081;-73
2021/12/04 16:06:22;;;;;;;15.82;12.40;;;;;;;;;;5032730;28;20100;-73
2021/12/04 16:08:49;;;;;;;14.63;13.25;;;;;;;;;;5032942;28;20108;-73
2021/12/04 16:11:17;;;;;;;14.82;13.35;;;;;;;;;;5032498;28;20021;-73
2021/12/04 16:13:50;;;;;;;14.80;13.35;;;;;;;;;;5032678;28;20021;-74
2021/12/04 16:19:21;;;;;;;15.23;13.60;;;;;;;;;;5033899;28;20037;-73
2021/12/04 16:21:49;;;;;;;14.18;12.98;;;;;;;;;;5032773;28;20459;-73